sensor_id;sensor_type;location;lat;lon;timestamp;temperature;humidity
19878;DHT22;10101;52.204;9.910;2023-05-16T00:01:53;10.10;99.90
19878;DHT22;10101;52.204;9.910;2023-05-16T00:04:20;10.00;99.90
19878;DHT22;10101;52.204;9.910;2023-05-16T00:06:48;10.00;99.90
19878;DHT22;10101;52.204;9.910;2023-05-16T00:09:15;10.00;99.90
19878;DHT22;10101;52.204;9.910;2023-05-16T00:11:42;10.00;99.90
19878;DHT22;10101;52.204;9.910;2023-05-16T00:14:09;10.00;99.90
19878;DHT22;10101;52.204;9.910;2023-05-16T00:16:36;10.00;99.90
19878;DHT22;10101;52.204;9.910;2023-05-16T00:19:02;10.20;99.90
19878;DHT22;10101;52.204;9.910;2023-05-16T00:21:29;10.00;99.90
19878;DHT22;10101;52.204;9.910;2023-05-16T00:23:57;10.10;99.90
19878;DHT22;10101;52.204;9.910;2023-05-16T00:26:24;10.00;99.90
19878;DHT22;10101;52.204;9.910;2023-05-16T00:28:51;10.00;99.90
19878;DHT22;10101;52.204;9.910;2023-05-16T00:31:18;10.00;99.90
19878;DHT22;10101;52.204;9.910;2023-05-16T00:33:45;10.00;99.90
19878;DHT22;10101;52.204;9.910;2023-05-16T00:36:11;10.00;99.90
19878;DHT22;10101;52.204;9.910;2023-05-16T00:38:38;10.00;99.90
19878;DHT22;10101;52.204;9.910;2023-05-16T00:41:06;10.10;99.90
19878;DHT22;10101;52.204;9.910;2023-05-16T00:43:33;10.00;99.90
19878;DHT22;10101;52.204;9.910;2023-05-16T00:46:00;10.00;99.90
19878;DHT22;10101;52.204;9.910;2023-05-16T00:48:26;10.00;99.90
19878;DHT22;10101;52.204;9.910;2023-05-16T00:50:53;10.00;99.90
19878;DHT22;10101;52.204;9.910;2023-05-16T00:53:20;10.00;99.90
19878;DHT22;10101;52.204;9.910;2023-05-16T00:55:47;10.00;99.90
19878;DHT22;10101;52.204;9.910;2023-05-16T00:58:15;10.00;99.90
19878;DHT22;10101;52.204;9.910;2023-05-16T01:00:43;10.00;99.90
19878;DHT22;10101;52.204;9.910;2023-05-16T01:03:11;10.10;99.90
19878;DHT22;10101;52.204;9.910;2023-05-16T01:05:39;10.00;99.90
19878;DHT22;10101;52.204;9.910;2023-05-16T01:08:06;10.20;99.90
19878;DHT22;10101;52.204;9.910;2023-05-16T01:10:40;10.10;99.90
19878;DHT22;10101;52.204;9.910;2023-05-16T01:13:11;10.00;99.90
19878;DHT22;10101;52.204;9.910;2023-05-16T01:15:48;10.00;99.90
19878;DHT22;10101;52.204;9.910;2023-05-16T01:18:23;10.00;99.90
19878;DHT22;10101;52.204;9.910;2023-05-16T01:20:55;10.10;99.90
19878;DHT22;10101;52.204;9.910;2023-05-16T01:23:39;10.10;99.90
19878;DHT22;10101;52.204;9.910;2023-05-16T01:26:14;10.10;99.90
19878;DHT22;10101;52.204;9.910;2023-05-16T01:28:43;10.10;99.90
19878;DHT22;10101;52.204;9.910;2023-05-16T01:31:10;10.10;99.90
19878;DHT22;10101;52.204;9.910;2023-05-16T01:33:37;10.10;99.90
19878;DHT22;10101;52.204;9.910;2023-05-16T01:36:10;10.20;99.90
19878;DHT22;10101;52.204;9.910;2023-05-16T01:38:43;10.10;99.90
19878;DHT22;10101;52.204;9.910;2023-05-16T01:41:17;10.20;99.90
19878;DHT22;10101;52.204;9.910;2023-05-16T01:43:50;10.20;99.90
19878;DHT22;10101;52.204;9.910;2023-05-16T01:46:23;10.20;99.90
19878;DHT22;10101;52.204;9.910;2023-05-16T01:48:52;10.20;99.90
19878;DHT22;10101;52.204;9.910;2023-05-16T01:51:21;10.20;99.90
19878;DHT22;10101;52.204;9.910;2023-05-16T01:53:51;10.30;99.90
19878;DHT22;10101;52.204;9.910;2023-05-16T01:56:22;10.20;99.90
19878;DHT22;10101;52.204;9.910;2023-05-16T01:58:51;10.20;99.90
19878;DHT22;10101;52.204;9.910;2023-05-16T02:01:18;10.20;99.90
19878;DHT22;10101;52.204;9.910;2023-05-16T02:03:45;10.20;99.90
19878;DHT22;10101;52.204;9.910;2023-05-16T02:06:12;10.20;99.90
19878;DHT22;10101;52.204;9.910;2023-05-16T02:08:38;10.20;99.90
19878;DHT22;10101;52.204;9.910;2023-05-16T02:11:06;10.20;99.90
19878;DHT22;10101;52.204;9.910;2023-05-16T02:13:34;10.20;99.90
19878;DHT22;10101;52.204;9.910;2023-05-16T02:16:00;10.10;99.90
19878;DHT22;10101;52.204;9.910;2023-05-16T02:18:27;10.10;99.90
19878;DHT22;10101;52.204;9.910;2023-05-16T02:20:54;10.00;99.90
19878;DHT22;10101;52.204;9.910;2023-05-16T02:23:20;10.00;99.90
19878;DHT22;10101;52.204;9.910;2023-05-16T02:25:47;10.00;99.90
19878;DHT22;10101;52.204;9.910;2023-05-16T02:28:14;10.00;99.90
19878;DHT22;10101;52.204;9.910;2023-05-16T02:30:42;10.10;99.90
19878;DHT22;10101;52.204;9.910;2023-05-16T02:33:10;10.10;99.90
19878;DHT22;10101;52.204;9.910;2023-05-16T02:35:36;10.50;99.90
19878;DHT22;10101;52.204;9.910;2023-05-16T02:38:03;10.10;99.90
19878;DHT22;10101;52.204;9.910;2023-05-16T02:40:30;10.10;99.90
19878;DHT22;10101;52.204;9.910;2023-05-16T02:42:57;10.10;99.90
19878;DHT22;10101;52.204;9.910;2023-05-16T02:45:23;10.10;99.90
19878;DHT22;10101;52.204;9.910;2023-05-16T02:47:52;10.10;99.90
19878;DHT22;10101;52.204;9.910;2023-05-16T02:50:19;10.10;99.90
19878;DHT22;10101;52.204;9.910;2023-05-16T02:52:46;10.10;99.90
19878;DHT22;10101;52.204;9.910;2023-05-16T02:55:13;10.10;99.90
19878;DHT22;10101;52.204;9.910;2023-05-16T02:57:40;10.10;99.90
19878;DHT22;10101;52.204;9.910;2023-05-16T03:00:07;10.00;99.90
19878;DHT22;10101;52.204;9.910;2023-05-16T03:02:36;10.10;99.90
19878;DHT22;10101;52.204;9.910;2023-05-16T03:05:04;10.10;99.90
19878;DHT22;10101;52.204;9.910;2023-05-16T03:07:31;10.10;99.90
19878;DHT22;10101;52.204;9.910;2023-05-16T03:09:58;10.10;99.90
19878;DHT22;10101;52.204;9.910;2023-05-16T03:12:25;10.00;99.90
19878;DHT22;10101;52.204;9.910;2023-05-16T03:14:52;10.00;99.90
19878;DHT22;10101;52.204;9.910;2023-05-16T03:17:19;10.00;99.90
19878;DHT22;10101;52.204;9.910;2023-05-16T03:19:45;10.10;99.90
19878;DHT22;10101;52.204;9.910;2023-05-16T03:22:13;10.00;99.90
19878;DHT22;10101;52.204;9.910;2023-05-16T03:24:40;10.00;99.90
19878;DHT22;10101;52.204;9.910;2023-05-16T03:27:07;10.00;99.90
19878;DHT22;10101;52.204;9.910;2023-05-16T03:29:33;9.90;99.90
19878;DHT22;10101;52.204;9.910;2023-05-16T03:32:00;9.80;99.90
19878;DHT22;10101;52.204;9.910;2023-05-16T03:34:27;9.80;99.90
19878;DHT22;10101;52.204;9.910;2023-05-16T03:36:53;9.70;99.90
19878;DHT22;10101;52.204;9.910;2023-05-16T03:39:22;9.40;99.90
19878;DHT22;10101;52.204;9.910;2023-05-16T03:41:48;9.60;99.90
19878;DHT22;10101;52.204;9.910;2023-05-16T03:44:16;9.70;99.90
19878;DHT22;10101;52.204;9.910;2023-05-16T03:46:43;9.50;99.90
19878;DHT22;10101;52.204;9.910;2023-05-16T03:49:10;9.50;99.90
19878;DHT22;10101;52.204;9.910;2023-05-16T03:51:36;9.50;99.90
19878;DHT22;10101;52.204;9.910;2023-05-16T03:54:03;9.50;99.90
19878;DHT22;10101;52.204;9.910;2023-05-16T03:56:31;9.50;99.90
19878;DHT22;10101;52.204;9.910;2023-05-16T03:58:58;9.60;99.90
19878;DHT22;10101;52.204;9.910;2023-05-16T04:01:25;9.50;99.90
19878;DHT22;10101;52.204;9.910;2023-05-16T04:03:52;9.50;99.90
19878;DHT22;10101;52.204;9.910;2023-05-16T04:06:19;9.00;99.90
19878;DHT22;10101;52.204;9.910;2023-05-16T04:08:46;9.50;99.90
19878;DHT22;10101;52.204;9.910;2023-05-16T04:11:13;9.50;99.90
19878;DHT22;10101;52.204;9.910;2023-05-16T04:13:41;9.50;99.90
19878;DHT22;10101;52.204;9.910;2023-05-16T04:16:07;9.40;99.90
19878;DHT22;10101;52.204;9.910;2023-05-16T04:18:34;9.40;99.90
19878;DHT22;10101;52.204;9.910;2023-05-16T04:21:01;9.40;99.90
19878;DHT22;10101;52.204;9.910;2023-05-16T04:23:28;9.40;99.90
19878;DHT22;10101;52.204;9.910;2023-05-16T04:25:54;9.40;99.90
19878;DHT22;10101;52.204;9.910;2023-05-16T04:28:21;9.50;99.90
19878;DHT22;10101;52.204;9.910;2023-05-16T04:30:49;9.50;99.90
19878;DHT22;10101;52.204;9.910;2023-05-16T04:33:16;9.50;99.90
19878;DHT22;10101;52.204;9.910;2023-05-16T04:35:43;9.40;99.90
19878;DHT22;10101;52.204;9.910;2023-05-16T04:38:10;9.50;99.90
19878;DHT22;10101;52.204;9.910;2023-05-16T04:40:36;9.50;99.90
19878;DHT22;10101;52.204;9.910;2023-05-16T04:43:04;9.20;99.90
19878;DHT22;10101;52.204;9.910;2023-05-16T04:45:31;9.60;99.90
19878;DHT22;10101;52.204;9.910;2023-05-16T04:48:00;9.60;99.90
19878;DHT22;10101;52.204;9.910;2023-05-16T04:50:27;9.60;99.90
19878;DHT22;10101;52.204;9.910;2023-05-16T04:52:53;9.60;99.90
19878;DHT22;10101;52.204;9.910;2023-05-16T04:55:20;9.60;99.90
19878;DHT22;10101;52.204;9.910;2023-05-16T04:57:47;9.60;99.90
19878;DHT22;10101;52.204;9.910;2023-05-16T05:00:14;9.60;99.90
19878;DHT22;10101;52.204;9.910;2023-05-16T05:02:42;9.60;99.90
19878;DHT22;10101;52.204;9.910;2023-05-16T05:05:10;9.60;99.90
19878;DHT22;10101;52.204;9.910;2023-05-16T05:07:37;9.60;99.90
19878;DHT22;10101;52.204;9.910;2023-05-16T05:10:05;9.50;99.90
19878;DHT22;10101;52.204;9.910;2023-05-16T05:12:33;9.50;99.90
19878;DHT22;10101;52.204;9.910;2023-05-16T05:15:00;9.50;99.90
19878;DHT22;10101;52.204;9.910;2023-05-16T05:17:27;9.50;99.90
19878;DHT22;10101;52.204;9.910;2023-05-16T05:19:54;9.40;99.90
19878;DHT22;10101;52.204;9.910;2023-05-16T05:22:22;9.40;99.90
19878;DHT22;10101;52.204;9.910;2023-05-16T05:24:48;9.40;99.90
19878;DHT22;10101;52.204;9.910;2023-05-16T05:27:16;9.40;99.90
19878;DHT22;10101;52.204;9.910;2023-05-16T05:29:42;9.40;99.90
19878;DHT22;10101;52.204;9.910;2023-05-16T05:32:09;9.40;99.90
19878;DHT22;10101;52.204;9.910;2023-05-16T05:34:36;9.40;99.90
19878;DHT22;10101;52.204;9.910;2023-05-16T05:37:03;9.40;99.90
19878;DHT22;10101;52.204;9.910;2023-05-16T05:39:31;9.40;99.90
19878;DHT22;10101;52.204;9.910;2023-05-16T05:41:58;9.40;99.90
19878;DHT22;10101;52.204;9.910;2023-05-16T05:44:26;9.40;99.90
19878;DHT22;10101;52.204;9.910;2023-05-16T05:46:53;9.40;99.90
19878;DHT22;10101;52.204;9.910;2023-05-16T05:49:21;9.40;99.90
19878;DHT22;10101;52.204;9.910;2023-05-16T05:51:48;9.40;99.90
19878;DHT22;10101;52.204;9.910;2023-05-16T05:54:16;9.30;99.90
19878;DHT22;10101;52.204;9.910;2023-05-16T05:56:44;9.30;99.90
19878;DHT22;10101;52.204;9.910;2023-05-16T05:59:11;9.40;99.90
19878;DHT22;10101;52.204;9.910;2023-05-16T06:01:38;9.40;99.90
19878;DHT22;10101;52.204;9.910;2023-05-16T06:04:05;9.40;99.90
19878;DHT22;10101;52.204;9.910;2023-05-16T06:06:31;9.40;99.90
19878;DHT22;10101;52.204;9.910;2023-05-16T06:08:58;9.40;99.90
19878;DHT22;10101;52.204;9.910;2023-05-16T06:11:25;9.50;99.90
19878;DHT22;10101;52.204;9.910;2023-05-16T06:13:53;9.50;99.90
19878;DHT22;10101;52.204;9.910;2023-05-16T06:16:23;9.60;99.90
19878;DHT22;10101;52.204;9.910;2023-05-16T06:18:50;9.70;99.90
19878;DHT22;10101;52.204;9.910;2023-05-16T06:21:17;9.60;99.90
19878;DHT22;10101;52.204;9.910;2023-05-16T06:23:43;9.60;99.90
19878;DHT22;10101;52.204;9.910;2023-05-16T06:26:10;9.80;99.90
19878;DHT22;10101;52.204;9.910;2023-05-16T06:28:37;9.80;99.90
19878;DHT22;10101;52.204;9.910;2023-05-16T06:31:05;9.90;99.90
19878;DHT22;10101;52.204;9.910;2023-05-16T06:33:31;10.00;99.90
19878;DHT22;10101;52.204;9.910;2023-05-16T06:35:59;10.00;99.90
19878;DHT22;10101;52.204;9.910;2023-05-16T06:38:26;9.90;99.90
19878;DHT22;10101;52.204;9.910;2023-05-16T06:40:52;9.80;1.00
19878;DHT22;10101;52.204;9.910;2023-05-16T06:43:19;9.80;1.00
19878;DHT22;10101;52.204;9.910;2023-05-16T06:45:46;9.80;99.90
19878;DHT22;10101;52.204;9.910;2023-05-16T06:48:14;9.70;1.00
19878;DHT22;10101;52.204;9.910;2023-05-16T06:50:40;9.80;1.00
19878;DHT22;10101;52.204;9.910;2023-05-16T06:53:07;9.90;1.00
19878;DHT22;10101;52.204;9.910;2023-05-16T06:55:36;9.90;99.90
19878;DHT22;10101;52.204;9.910;2023-05-16T06:58:03;10.00;1.00
19878;DHT22;10101;52.204;9.910;2023-05-16T07:00:30;10.20;1.00
19878;DHT22;10101;52.204;9.910;2023-05-16T07:02:57;10.30;99.90
19878;DHT22;10101;52.204;9.910;2023-05-16T07:05:25;10.20;1.00
19878;DHT22;10101;52.204;9.910;2023-05-16T07:07:52;10.10;1.00
19878;DHT22;10101;52.204;9.910;2023-05-16T07:10:18;10.10;99.90
19878;DHT22;10101;52.204;9.910;2023-05-16T07:12:45;10.20;10.60
19878;DHT22;10101;52.204;9.910;2023-05-16T07:15:13;10.20;1.00
19878;DHT22;10101;52.204;9.910;2023-05-16T07:17:40;10.50;1.00
19878;DHT22;10101;52.204;9.910;2023-05-16T07:20:07;10.60;1.00
19878;DHT22;10101;52.204;9.910;2023-05-16T07:22:39;10.50;99.90
19878;DHT22;10101;52.204;9.910;2023-05-16T07:25:06;10.40;1.00
19878;DHT22;10101;52.204;9.910;2023-05-16T07:27:37;10.40;1.00
19878;DHT22;10101;52.204;9.910;2023-05-16T07:30:06;10.60;99.90
19878;DHT22;10101;52.204;9.910;2023-05-16T07:32:33;10.60;20.80
19878;DHT22;10101;52.204;9.910;2023-05-16T07:35:00;11.10;1.00
19878;DHT22;10101;52.204;9.910;2023-05-16T07:37:27;11.50;1.00
19878;DHT22;10101;52.204;9.910;2023-05-16T07:39:55;11.60;1.00
19878;DHT22;10101;52.204;9.910;2023-05-16T07:42:22;11.20;99.90
19878;DHT22;10101;52.204;9.910;2023-05-16T07:44:48;11.20;1.00
19878;DHT22;10101;52.204;9.910;2023-05-16T07:47:15;11.00;1.00
19878;DHT22;10101;52.204;9.910;2023-05-16T07:49:42;10.80;99.90
19878;DHT22;10101;52.204;9.910;2023-05-16T07:52:09;11.00;99.90
19878;DHT22;10101;52.204;9.910;2023-05-16T07:54:36;10.80;1.00
19878;DHT22;10101;52.204;9.910;2023-05-16T07:57:05;10.90;1.00
19878;DHT22;10101;52.204;9.910;2023-05-16T07:59:31;11.20;1.00
19878;DHT22;10101;52.204;9.910;2023-05-16T08:01:58;11.20;1.00
19878;DHT22;10101;52.204;9.910;2023-05-16T08:04:25;11.50;1.00
19878;DHT22;10101;52.204;9.910;2023-05-16T08:06:52;11.70;99.90
19878;DHT22;10101;52.204;9.910;2023-05-16T08:09:18;11.80;99.90
19878;DHT22;10101;52.204;9.910;2023-05-16T08:11:45;11.60;1.00
19878;DHT22;10101;52.204;9.910;2023-05-16T08:14:13;11.40;1.00
19878;DHT22;10101;52.204;9.910;2023-05-16T08:16:40;10.90;1.00
19878;DHT22;10101;52.204;9.910;2023-05-16T08:19:07;11.00;99.90
19878;DHT22;10101;52.204;9.910;2023-05-16T08:21:33;11.40;1.00
19878;DHT22;10101;52.204;9.910;2023-05-16T08:24:00;11.10;99.90
19878;DHT22;10101;52.204;9.910;2023-05-16T08:26:27;11.20;99.30
19878;DHT22;10101;52.204;9.910;2023-05-16T08:28:54;11.30;26.40
19878;DHT22;10101;52.204;9.910;2023-05-16T08:31:22;11.70;1.00
19878;DHT22;10101;52.204;9.910;2023-05-16T08:33:48;11.70;1.00
19878;DHT22;10101;52.204;9.910;2023-05-16T08:36:15;11.90;1.00
19878;DHT22;10101;52.204;9.910;2023-05-16T08:38:44;12.10;1.00
19878;DHT22;10101;52.204;9.910;2023-05-16T08:41:11;11.90;1.00
19878;DHT22;10101;52.204;9.910;2023-05-16T08:43:38;11.50;1.00
19878;DHT22;10101;52.204;9.910;2023-05-16T08:46:06;11.90;99.90
19878;DHT22;10101;52.204;9.910;2023-05-16T08:48:35;12.10;99.90
19878;DHT22;10101;52.204;9.910;2023-05-16T08:51:05;12.00;99.90
19878;DHT22;10101;52.204;9.910;2023-05-16T08:53:38;11.90;99.90
19878;DHT22;10101;52.204;9.910;2023-05-16T08:56:06;12.20;1.00
19878;DHT22;10101;52.204;9.910;2023-05-16T08:58:33;12.10;1.00
19878;DHT22;10101;52.204;9.910;2023-05-16T09:01:01;12.10;1.00
19878;DHT22;10101;52.204;9.910;2023-05-16T09:03:31;11.80;99.90
19878;DHT22;10101;52.204;9.910;2023-05-16T09:05:59;11.70;1.00
19878;DHT22;10101;52.204;9.910;2023-05-16T09:08:26;12.00;1.00
19878;DHT22;10101;52.204;9.910;2023-05-16T09:10:53;12.00;1.00
19878;DHT22;10101;52.204;9.910;2023-05-16T09:13:20;11.80;1.00
19878;DHT22;10101;52.204;9.910;2023-05-16T09:16:07;12.00;1.00
19878;DHT22;10101;52.204;9.910;2023-05-16T09:18:33;12.30;99.90
19878;DHT22;10101;52.204;9.910;2023-05-16T09:21:03;12.20;1.00
19878;DHT22;10101;52.204;9.910;2023-05-16T09:23:30;12.70;1.00
19878;DHT22;10101;52.204;9.910;2023-05-16T09:25:58;12.70;99.90
19878;DHT22;10101;52.204;9.910;2023-05-16T09:28:25;12.10;99.90
19878;DHT22;10101;52.204;9.910;2023-05-16T09:30:52;12.40;1.00
19878;DHT22;10101;52.204;9.910;2023-05-16T09:33:21;12.60;1.00
19878;DHT22;10101;52.204;9.910;2023-05-16T09:35:54;12.70;1.00
19878;DHT22;10101;52.204;9.910;2023-05-16T09:38:23;12.60;99.90
19878;DHT22;10101;52.204;9.910;2023-05-16T09:40:51;12.30;36.90
19878;DHT22;10101;52.204;9.910;2023-05-16T09:43:24;12.50;99.90
19878;DHT22;10101;52.204;9.910;2023-05-16T09:45:51;12.80;99.90
19878;DHT22;10101;52.204;9.910;2023-05-16T09:48:20;12.90;1.00
19878;DHT22;10101;52.204;9.910;2023-05-16T09:50:49;12.50;1.00
19878;DHT22;10101;52.204;9.910;2023-05-16T09:53:29;12.60;99.90
19878;DHT22;10101;52.204;9.910;2023-05-16T09:56:04;12.80;1.00
19878;DHT22;10101;52.204;9.910;2023-05-16T09:58:33;12.90;1.00
19878;DHT22;10101;52.204;9.910;2023-05-16T10:01:00;12.80;1.00
19878;DHT22;10101;52.204;9.910;2023-05-16T10:03:27;13.10;1.00
19878;DHT22;10101;52.204;9.910;2023-05-16T10:05:55;13.20;1.00
19878;DHT22;10101;52.204;9.910;2023-05-16T10:08:24;13.10;1.00
19878;DHT22;10101;52.204;9.910;2023-05-16T10:10:53;13.30;1.00
19878;DHT22;10101;52.204;9.910;2023-05-16T10:15:48;13.10;1.00
19878;DHT22;10101;52.204;9.910;2023-05-16T10:18:17;13.10;1.00
19878;DHT22;10101;52.204;9.910;2023-05-16T10:20:45;13.30;1.00
19878;DHT22;10101;52.204;9.910;2023-05-16T10:23:17;13.60;1.00
19878;DHT22;10101;52.204;9.910;2023-05-16T10:25:45;13.70;1.00
19878;DHT22;10101;52.204;9.910;2023-05-16T10:28:15;13.60;1.00
19878;DHT22;10101;52.204;9.910;2023-05-16T10:30:43;13.40;99.90
19878;DHT22;10101;52.204;9.910;2023-05-16T10:33:11;13.60;99.90
19878;DHT22;10101;52.204;9.910;2023-05-16T10:35:39;13.60;99.90
19878;DHT22;10101;52.204;9.910;2023-05-16T10:38:07;13.50;1.00
19878;DHT22;10101;52.204;9.910;2023-05-16T10:40:35;13.60;1.00
19878;DHT22;10101;52.204;9.910;2023-05-16T10:43:04;13.50;99.90
19878;DHT22;10101;52.204;9.910;2023-05-16T10:45:33;13.40;1.00
19878;DHT22;10101;52.204;9.910;2023-05-16T10:48:02;13.80;1.00
19878;DHT22;10101;52.204;9.910;2023-05-16T10:50:33;14.30;1.00
19878;DHT22;10101;52.204;9.910;2023-05-16T10:53:13;14.00;1.00
19878;DHT22;10101;52.204;9.910;2023-05-16T10:55:44;13.60;1.00
19878;DHT22;10101;52.204;9.910;2023-05-16T10:58:11;13.80;99.90
19878;DHT22;10101;52.204;9.910;2023-05-16T11:00:39;13.80;1.00
19878;DHT22;10101;52.204;9.910;2023-05-16T11:03:22;14.10;1.00
19878;DHT22;10101;52.204;9.910;2023-05-16T11:05:53;14.40;1.00
19878;DHT22;10101;52.204;9.910;2023-05-16T11:08:25;14.50;1.00
19878;DHT22;10101;52.204;9.910;2023-05-16T11:11:37;14.60;1.00
19878;DHT22;10101;52.204;9.910;2023-05-16T11:14:05;13.50;1.00
19878;DHT22;10101;52.204;9.910;2023-05-16T11:16:33;14.00;1.00
19878;DHT22;10101;52.204;9.910;2023-05-16T11:19:03;14.30;1.00
19878;DHT22;10101;52.204;9.910;2023-05-16T11:22:04;14.10;1.00
19878;DHT22;10101;52.204;9.910;2023-05-16T11:24:31;14.20;1.00
19878;DHT22;10101;52.204;9.910;2023-05-16T11:26:59;14.40;1.00
19878;DHT22;10101;52.204;9.910;2023-05-16T11:29:30;14.50;1.00
19878;DHT22;10101;52.204;9.910;2023-05-16T11:31:58;14.90;1.00
19878;DHT22;10101;52.204;9.910;2023-05-16T11:34:25;15.00;1.00
19878;DHT22;10101;52.204;9.910;2023-05-16T11:36:52;14.50;1.00
19878;DHT22;10101;52.204;9.910;2023-05-16T11:39:18;14.70;1.00
19878;DHT22;10101;52.204;9.910;2023-05-16T11:41:45;15.00;99.90
19878;DHT22;10101;52.204;9.910;2023-05-16T11:44:12;14.60;99.90
19878;DHT22;10101;52.204;9.910;2023-05-16T11:46:40;15.00;99.90
19878;DHT22;10101;52.204;9.910;2023-05-16T11:49:08;14.70;99.90
19878;DHT22;10101;52.204;9.910;2023-05-16T11:51:37;14.80;99.90
19878;DHT22;10101;52.204;9.910;2023-05-16T11:54:04;14.60;99.90
19878;DHT22;10101;52.204;9.910;2023-05-16T11:56:31;14.90;99.90
19878;DHT22;10101;52.204;9.910;2023-05-16T11:59:00;14.50;99.90
19878;DHT22;10101;52.204;9.910;2023-05-16T12:01:32;14.70;99.90
19878;DHT22;10101;52.204;9.910;2023-05-16T12:04:00;14.30;69.70
19878;DHT22;10101;52.204;9.910;2023-05-16T12:06:28;14.20;1.00
19878;DHT22;10101;52.204;9.910;2023-05-16T12:08:55;14.00;1.00
19878;DHT22;10101;52.204;9.910;2023-05-16T12:11:23;14.10;1.00
19878;DHT22;10101;52.204;9.910;2023-05-16T12:13:50;14.50;1.00
19878;DHT22;10101;52.204;9.910;2023-05-16T12:16:17;15.00;1.00
19878;DHT22;10101;52.204;9.910;2023-05-16T12:18:44;15.20;1.00
19878;DHT22;10101;52.204;9.910;2023-05-16T12:21:12;15.00;1.00
19878;DHT22;10101;52.204;9.910;2023-05-16T12:23:41;14.90;1.00
19878;DHT22;10101;52.204;9.910;2023-05-16T12:26:07;15.40;99.90
19878;DHT22;10101;52.204;9.910;2023-05-16T12:28:34;15.10;99.90
19878;DHT22;10101;52.204;9.910;2023-05-16T12:31:03;15.00;99.90
19878;DHT22;10101;52.204;9.910;2023-05-16T12:33:30;15.10;99.90
19878;DHT22;10101;52.204;9.910;2023-05-16T12:35:57;15.30;99.90
19878;DHT22;10101;52.204;9.910;2023-05-16T12:38:27;15.40;99.90
19878;DHT22;10101;52.204;9.910;2023-05-16T12:40:57;15.10;99.90
19878;DHT22;10101;52.204;9.910;2023-05-16T12:43:24;15.10;1.00
19878;DHT22;10101;52.204;9.910;2023-05-16T12:45:52;15.10;1.00
19878;DHT22;10101;52.204;9.910;2023-05-16T12:48:20;15.40;1.00
19878;DHT22;10101;52.204;9.910;2023-05-16T12:50:47;15.40;99.90
19878;DHT22;10101;52.204;9.910;2023-05-16T12:53:16;15.50;99.90
19878;DHT22;10101;52.204;9.910;2023-05-16T12:55:44;14.90;99.90
19878;DHT22;10101;52.204;9.910;2023-05-16T12:58:11;14.90;99.90
19878;DHT22;10101;52.204;9.910;2023-05-16T13:00:38;15.40;99.90
19878;DHT22;10101;52.204;9.910;2023-05-16T13:03:05;15.70;99.90
19878;DHT22;10101;52.204;9.910;2023-05-16T13:05:32;15.30;99.90
19878;DHT22;10101;52.204;9.910;2023-05-16T13:08:00;15.10;99.90
19878;DHT22;10101;52.204;9.910;2023-05-16T13:10:27;14.80;99.90
19878;DHT22;10101;52.204;9.910;2023-05-16T13:12:55;15.10;99.90
19878;DHT22;10101;52.204;9.910;2023-05-16T13:15:24;14.80;99.90
19878;DHT22;10101;52.204;9.910;2023-05-16T13:17:51;14.30;99.90
19878;DHT22;10101;52.204;9.910;2023-05-16T13:20:18;14.10;99.90
19878;DHT22;10101;52.204;9.910;2023-05-16T13:22:45;14.00;1.00
19878;DHT22;10101;52.204;9.910;2023-05-16T13:25:12;14.00;1.00
19878;DHT22;10101;52.204;9.910;2023-05-16T13:27:39;14.00;1.00
19878;DHT22;10101;52.204;9.910;2023-05-16T13:30:08;14.50;1.00
19878;DHT22;10101;52.204;9.910;2023-05-16T13:32:36;14.70;42.20
19878;DHT22;10101;52.204;9.910;2023-05-16T13:35:03;14.50;99.90
19878;DHT22;10101;52.204;9.910;2023-05-16T13:37:30;14.20;43.90
19878;DHT22;10101;52.204;9.910;2023-05-16T13:39:57;14.00;1.00
19878;DHT22;10101;52.204;9.910;2023-05-16T13:42:24;13.60;1.00
19878;DHT22;10101;52.204;9.910;2023-05-16T13:44:50;13.60;1.00
19878;DHT22;10101;52.204;9.910;2023-05-16T13:47:19;13.50;1.00
19878;DHT22;10101;52.204;9.910;2023-05-16T13:49:45;13.70;1.00
19878;DHT22;10101;52.204;9.910;2023-05-16T13:52:13;13.80;1.00
19878;DHT22;10101;52.204;9.910;2023-05-16T13:54:40;13.90;1.00
19878;DHT22;10101;52.204;9.910;2023-05-16T13:57:07;13.80;18.30
19878;DHT22;10101;52.204;9.910;2023-05-16T13:59:34;13.70;76.70
19878;DHT22;10101;52.204;9.910;2023-05-16T14:02:01;13.70;34.30
19878;DHT22;10101;52.204;9.910;2023-05-16T14:04:29;13.90;46.80
19878;DHT22;10101;52.204;9.910;2023-05-16T14:06:56;13.80;1.00
19878;DHT22;10101;52.204;9.910;2023-05-16T14:09:23;13.90;10.70
19878;DHT22;10101;52.204;9.910;2023-05-16T14:11:49;13.90;99.90
19878;DHT22;10101;52.204;9.910;2023-05-16T14:14:16;14.60;99.90
19878;DHT22;10101;52.204;9.910;2023-05-16T14:16:43;14.70;99.90
19878;DHT22;10101;52.204;9.910;2023-05-16T14:19:10;15.40;99.90
19878;DHT22;10101;52.204;9.910;2023-05-16T14:21:38;16.00;99.90
19878;DHT22;10101;52.204;9.910;2023-05-16T14:24:06;16.00;99.90
19878;DHT22;10101;52.204;9.910;2023-05-16T14:26:33;17.10;99.90
19878;DHT22;10101;52.204;9.910;2023-05-16T14:28:59;17.30;99.90
19878;DHT22;10101;52.204;9.910;2023-05-16T14:31:26;17.00;99.90
19878;DHT22;10101;52.204;9.910;2023-05-16T14:33:54;15.80;99.90
19878;DHT22;10101;52.204;9.910;2023-05-16T14:36:21;16.10;99.90
19878;DHT22;10101;52.204;9.910;2023-05-16T14:38:49;15.80;99.90
19878;DHT22;10101;52.204;9.910;2023-05-16T14:41:16;15.30;99.90
19878;DHT22;10101;52.204;9.910;2023-05-16T14:43:43;15.00;99.90
19878;DHT22;10101;52.204;9.910;2023-05-16T14:46:10;15.20;99.90
19878;DHT22;10101;52.204;9.910;2023-05-16T14:48:37;16.30;99.90
19878;DHT22;10101;52.204;9.910;2023-05-16T14:51:04;17.20;99.90
19878;DHT22;10101;52.204;9.910;2023-05-16T14:53:31;16.20;99.90
19878;DHT22;10101;52.204;9.910;2023-05-16T14:56:01;15.50;37.70
19878;DHT22;10101;52.204;9.910;2023-05-16T14:58:28;14.80;1.00
19878;DHT22;10101;52.204;9.910;2023-05-16T15:00:55;14.30;1.00
19878;DHT22;10101;52.204;9.910;2023-05-16T15:03:21;14.20;1.00
19878;DHT22;10101;52.204;9.910;2023-05-16T15:05:49;14.00;1.00
19878;DHT22;10101;52.204;9.910;2023-05-16T15:08:15;14.30;1.00
19878;DHT22;10101;52.204;9.910;2023-05-16T15:10:42;16.40;1.00
19878;DHT22;10101;52.204;9.910;2023-05-16T15:13:10;15.80;86.90
19878;DHT22;10101;52.204;9.910;2023-05-16T15:15:37;15.00;1.00
19878;DHT22;10101;52.204;9.910;2023-05-16T15:18:04;14.40;1.00
19878;DHT22;10101;52.204;9.910;2023-05-16T15:20:31;14.60;1.00
19878;DHT22;10101;52.204;9.910;2023-05-16T15:22:58;16.40;49.20
19878;DHT22;10101;52.204;9.910;2023-05-16T15:25:25;16.20;99.90
19878;DHT22;10101;52.204;9.910;2023-05-16T15:27:51;17.20;99.90
19878;DHT22;10101;52.204;9.910;2023-05-16T15:30:19;16.40;99.90
19878;DHT22;10101;52.204;9.910;2023-05-16T15:32:46;16.40;99.90
19878;DHT22;10101;52.204;9.910;2023-05-16T15:35:13;15.40;30.20
19878;DHT22;10101;52.204;9.910;2023-05-16T15:37:40;14.60;1.00
19878;DHT22;10101;52.204;9.910;2023-05-16T15:40:09;14.20;1.00
19878;DHT22;10101;52.204;9.910;2023-05-16T15:42:36;14.10;1.00
19878;DHT22;10101;52.204;9.910;2023-05-16T15:45:03;13.60;1.00
19878;DHT22;10101;52.204;9.910;2023-05-16T15:47:31;13.30;99.90